PWSweather.com
Personal Weather Stations
Station Observations
KCTCOLEB1
Sandy Brook, Colebrook, CT 06021

Sandy BrookColebrook, CT 06021

Lat: 42.0018, Lon: -73.0825

Elevation: 935

Station Type: Davis Vantage Pro2 + Solar + UV

Latest ConditionsUpdated 12:30:01 PM EST Friday, Nov 17, 2017
Currently Today's Max Today's Min Today's Average
Temperature 39.1°F3.9°C 39.1°F3.9°C 32.8°F0.4°C 35.3°F1.8°C
Dew Point 26.8°F-2.9°C 36.1°F2.3°C 26.0°F-3.3°C 29.6°F-1.3°C
Winds 3.5 mph NNW5.6 kmh NNW 5.8 mph NNW9.3 kmh NNW - 2.9 mph 4.7 kmh
Wind Gusts 9.2 mph14.8 kmh 16.1 mph25.9 kmh - -
Humidity 61% 95% 61% 80%
Pressure 29.96 in1014.6 mb 29.99 in1015.6 mb 29.80 in1009.1 mb -
Precipitation - 0.01 in0.3 mm - -
Hour Temp Dew Point Humidity Winds Wind Gusts Pressure Precip Precip Rate Daily Precip Total
12:30 PM 39.1°F3.9°C 26.8°F-2.9°C 61% 3.5 mph NNW5.6 kmh NNW 9.2 mph14.8 kmh 29.96 in1014.6 mb - 0.00 in0.0 mm 0.01 in0.3 mm
12:20 PM 38.8°F3.8°C 26.5°F-3.1°C 61% 3.5 mph NE5.6 kmh NE 8.1 mph13.0 kmh 29.96 in1014.6 mb - 0.00 in0.0 mm 0.01 in0.3 mm
12:10 PM 38.7°F3.7°C 27.2°F-2.7°C 63% 2.3 mph ENE3.7 kmh ENE 5.8 mph9.3 kmh 29.97 in1014.9 mb - 0.00 in0.0 mm 0.01 in0.3 mm
12:00 PM 38.3°F3.5°C 27.2°F-2.7°C 64% 3.5 mph NE5.6 kmh NE 9.2 mph14.8 kmh 29.96 in1014.6 mb - 0.00 in0.0 mm 0.01 in0.3 mm
11:50 AM 38.2°F3.4°C 27.1°F-2.7°C 64% 2.3 mph ENE3.7 kmh ENE 3.5 mph5.6 kmh 29.96 in1014.6 mb - 0.00 in0.0 mm 0.01 in0.3 mm
11:40 AM 37.9°F3.3°C 26.4°F-3.1°C 63% 2.3 mph N3.7 kmh N 3.5 mph5.6 kmh 29.96 in1014.6 mb - 0.00 in0.0 mm 0.01 in0.3 mm
11:30 AM 37.6°F3.1°C 26.9°F-2.8°C 65% 1.2 mph NNE1.9 kmh NNE 3.5 mph5.6 kmh 29.97 in1014.9 mb - 0.00 in0.0 mm 0.01 in0.3 mm
11:20 AM 37.2°F2.9°C 27.6°F-2.4°C 68% 2.3 mph NNE3.7 kmh NNE 6.9 mph11.1 kmh 29.98 in1015.2 mb - 0.00 in0.0 mm 0.01 in0.3 mm
11:10 AM 36.2°F2.3°C 27.0°F-2.8°C 69% 3.5 mph NE5.6 kmh NE 8.1 mph13.0 kmh 29.99 in1015.6 mb - 0.00 in0.0 mm 0.01 in0.3 mm
11:00 AM 35.5°F1.9°C 26.0°F-3.3°C 68% 2.3 mph SSW3.7 kmh SSW 3.5 mph5.6 kmh 29.99 in1015.6 mb - 0.00 in0.0 mm 0.01 in0.3 mm
10:50 AM 35.3°F1.8°C 26.2°F-3.2°C 69% 2.3 mph N3.7 kmh N 3.5 mph5.6 kmh 29.99 in1015.6 mb - 0.00 in0.0 mm 0.01 in0.3 mm
10:40 AM 35.4°F1.9°C 26.2°F-3.2°C 69% 4.6 mph NNE7.4 kmh NNE 6.9 mph11.1 kmh 29.99 in1015.6 mb - 0.00 in0.0 mm 0.01 in0.3 mm
10:30 AM 35.4°F1.9°C 26.3°F-3.2°C 69% 4.6 mph NNW7.4 kmh NNW 6.9 mph11.1 kmh 29.99 in1015.6 mb - 0.00 in0.0 mm 0.01 in0.3 mm
10:20 AM 35.5°F1.9°C 26.7°F-2.9°C 70% 5.8 mph NNE9.3 kmh NNE 9.2 mph14.8 kmh 29.98 in1015.2 mb - 0.00 in0.0 mm 0.01 in0.3 mm
10:10 AM 35.3°F1.8°C 26.5°F-3.1°C 70% 5.8 mph N9.3 kmh N 11.5 mph18.5 kmh 29.98 in1015.2 mb - 0.00 in0.0 mm 0.01 in0.3 mm
10:00 AM 35.1°F1.7°C 26.3°F-3.2°C 70% 3.5 mph N5.6 kmh N 6.9 mph11.1 kmh 29.98 in1015.2 mb - 0.00 in0.0 mm 0.01 in0.3 mm
09:50 AM 34.8°F1.6°C 26.7°F-2.9°C 72% 4.6 mph N7.4 kmh N 9.2 mph14.8 kmh 29.98 in1015.2 mb - 0.00 in0.0 mm 0.01 in0.3 mm
09:40 AM 34.3°F1.3°C 26.9°F-2.8°C 74% 5.8 mph NNW9.3 kmh NNW 11.5 mph18.5 kmh 29.97 in1014.9 mb - 0.00 in0.0 mm 0.01 in0.3 mm
09:30 AM 33.9°F1.1°C 26.8°F-2.9°C 75% 2.3 mph N3.7 kmh N 5.8 mph9.3 kmh 29.97 in1014.9 mb - 0.00 in0.0 mm 0.01 in0.3 mm
09:20 AM 33.9°F1.1°C 26.5°F-3.1°C 74% 5.8 mph NNE9.3 kmh NNE 9.2 mph14.8 kmh 29.96 in1014.6 mb - 0.00 in0.0 mm 0.01 in0.3 mm
09:10 AM 33.6°F0.9°C 26.6°F-3.0°C 75% 3.5 mph N5.6 kmh N 9.2 mph14.8 kmh 29.96 in1014.6 mb - 0.00 in0.0 mm 0.01 in0.3 mm
09:00 AM 33.5°F0.8°C 26.4°F-3.1°C 75% 4.6 mph NW7.4 kmh NW 10.4 mph16.7 kmh 29.97 in1014.9 mb - 0.00 in0.0 mm 0.01 in0.3 mm
08:50 AM 33.4°F0.8°C 26.3°F-3.2°C 75% 3.5 mph N5.6 kmh N 5.8 mph9.3 kmh 29.97 in1014.9 mb - 0.00 in0.0 mm 0.01 in0.3 mm
08:40 AM 33.2°F0.7°C 26.8°F-2.9°C 77% 2.3 mph N3.7 kmh N 3.5 mph5.6 kmh 29.97 in1014.9 mb - 0.00 in0.0 mm 0.01 in0.3 mm
08:30 AM 32.8°F0.4°C 26.7°F-2.9°C 78% 3.5 mph N5.6 kmh N 3.5 mph5.6 kmh 29.97 in1014.9 mb - 0.00 in0.0 mm 0.01 in0.3 mm
08:20 AM 32.8°F0.4°C 26.4°F-3.1°C 77% 5.8 mph N9.3 kmh N 5.8 mph9.3 kmh 29.97 in1014.9 mb - 0.00 in0.0 mm 0.01 in0.3 mm
08:10 AM 32.8°F0.4°C 26.7°F-2.9°C 78% 3.5 mph WSW5.6 kmh WSW 5.8 mph9.3 kmh 29.96 in1014.6 mb - 0.00 in0.0 mm 0.01 in0.3 mm
08:00 AM 32.8°F0.4°C 26.7°F-2.9°C 78% 3.5 mph NNW5.6 kmh NNW 8.1 mph13.0 kmh 29.96 in1014.6 mb - 0.00 in0.0 mm 0.01 in0.3 mm
07:50 AM 32.8°F0.4°C 27.0°F-2.8°C 79% 2.3 mph N3.7 kmh N 3.5 mph5.6 kmh 29.96 in1014.6 mb - 0.00 in0.0 mm 0.01 in0.3 mm
07:40 AM 33.0°F0.6°C 27.2°F-2.7°C 79% 4.6 mph NNE7.4 kmh NNE 8.1 mph13.0 kmh 29.96 in1014.6 mb - 0.00 in0.0 mm 0.01 in0.3 mm
07:30 AM 33.2°F0.7°C 27.1°F-2.7°C 78% 3.5 mph N5.6 kmh N 8.1 mph13.0 kmh 29.96 in1014.6 mb - 0.00 in0.0 mm 0.01 in0.3 mm
07:20 AM 33.3°F0.7°C 27.2°F-2.7°C 78% 4.6 mph NE7.4 kmh NE 6.9 mph11.1 kmh 29.95 in1014.2 mb - 0.00 in0.0 mm 0.01 in0.3 mm
07:10 AM 33.5°F0.8°C 28.0°F-2.2°C 80% 3.5 mph N5.6 kmh N 5.8 mph9.3 kmh 29.94 in1013.9 mb - 0.00 in0.0 mm 0.01 in0.3 mm
07:00 AM 33.6°F0.9°C 28.1°F-2.2°C 80% 2.3 mph N3.7 kmh N 2.3 mph3.7 kmh 29.93 in1013.5 mb - 0.00 in0.0 mm 0.01 in0.3 mm
06:50 AM 33.7°F0.9°C 28.2°F-2.1°C 80% 2.3 mph NNW3.7 kmh NNW 3.5 mph5.6 kmh 29.93 in1013.5 mb - 0.00 in0.0 mm 0.01 in0.3 mm
06:40 AM 33.8°F1.0°C 28.3°F-2.1°C 80% 2.3 mph NNW3.7 kmh NNW 3.5 mph5.6 kmh 29.93 in1013.5 mb - 0.00 in0.0 mm 0.01 in0.3 mm
06:30 AM 33.9°F1.1°C 28.4°F-2.0°C 80% 5.8 mph NNW9.3 kmh NNW 16.1 mph25.9 kmh 29.93 in1013.5 mb - 0.00 in0.0 mm 0.01 in0.3 mm
06:20 AM 33.9°F1.1°C 28.1°F-2.2°C 79% 3.5 mph N5.6 kmh N 8.1 mph13.0 kmh 29.92 in1013.2 mb - 0.00 in0.0 mm 0.01 in0.3 mm
06:10 AM 34.0°F1.1°C 28.5°F-1.9°C 80% 2.3 mph NE3.7 kmh NE 3.5 mph5.6 kmh 29.91 in1012.9 mb - 0.00 in0.0 mm 0.01 in0.3 mm
06:00 AM 34.0°F1.1°C 28.2°F-2.1°C 79% 3.5 mph NW5.6 kmh NW 3.5 mph5.6 kmh 29.91 in1012.9 mb - 0.00 in0.0 mm 0.01 in0.3 mm
05:50 AM 34.1°F1.2°C 28.3°F-2.1°C 79% 3.5 mph N5.6 kmh N 4.6 mph7.4 kmh 29.91 in1012.9 mb - 0.00 in0.0 mm 0.01 in0.3 mm
05:40 AM 34.2°F1.2°C 28.4°F-2.0°C 79% 3.5 mph N5.6 kmh N 8.1 mph13.0 kmh 29.91 in1012.9 mb - 0.00 in0.0 mm 0.01 in0.3 mm
05:30 AM 34.3°F1.3°C 28.8°F-1.8°C 80% 3.5 mph N5.6 kmh N 3.5 mph5.6 kmh 29.91 in1012.9 mb - 0.00 in0.0 mm 0.01 in0.3 mm
05:20 AM 34.5°F1.4°C 29.6°F-1.3°C 82% 2.3 mph NW3.7 kmh NW 3.5 mph5.6 kmh 29.91 in1012.9 mb - 0.00 in0.0 mm 0.01 in0.3 mm
05:10 AM 34.6°F1.4°C 29.7°F-1.3°C 82% 2.3 mph NNW3.7 kmh NNW 3.5 mph5.6 kmh 29.90 in1012.5 mb - 0.00 in0.0 mm 0.01 in0.3 mm
05:00 AM 34.7°F1.5°C 29.8°F-1.2°C 82% 2.3 mph N3.7 kmh N 3.5 mph5.6 kmh 29.90 in1012.5 mb - 0.00 in0.0 mm 0.01 in0.3 mm
04:50 AM 34.8°F1.6°C 30.2°F-1.0°C 83% 2.3 mph N3.7 kmh N 3.5 mph5.6 kmh 29.89 in1012.2 mb - 0.00 in0.0 mm 0.01 in0.3 mm
04:40 AM 34.9°F1.6°C 30.3°F-0.9°C 83% 2.3 mph NNE3.7 kmh NNE 3.5 mph5.6 kmh 29.89 in1012.2 mb - 0.00 in0.0 mm 0.01 in0.3 mm
04:30 AM 35.0°F1.7°C 30.1°F-1.1°C 82% 2.3 mph NW3.7 kmh NW 3.5 mph5.6 kmh 29.89 in1012.2 mb - 0.00 in0.0 mm 0.01 in0.3 mm
04:20 AM 35.0°F1.7°C 30.4°F-0.9°C 83% 1.2 mph NE1.9 kmh NE 2.3 mph3.7 kmh 29.88 in1011.9 mb - 0.00 in0.0 mm 0.01 in0.3 mm
04:10 AM 35.1°F1.7°C 30.8°F-0.7°C 84% 4.6 mph NNE7.4 kmh NNE 8.1 mph13.0 kmh 29.87 in1011.5 mb - 0.00 in0.0 mm 0.01 in0.3 mm
04:00 AM 35.3°F1.8°C 30.7°F-0.7°C 83% 2.3 mph NW3.7 kmh NW 3.5 mph5.6 kmh 29.87 in1011.5 mb - 0.00 in0.0 mm 0.01 in0.3 mm
03:50 AM 35.4°F1.9°C 31.1°F-0.5°C 84% 2.3 mph NNW3.7 kmh NNW 4.6 mph7.4 kmh 29.86 in1011.2 mb - 0.00 in0.0 mm 0.01 in0.3 mm
03:40 AM 35.6°F2.0°C 31.5°F-0.3°C 85% 3.5 mph NE5.6 kmh NE 6.9 mph11.1 kmh 29.86 in1011.2 mb - 0.00 in0.0 mm 0.01 in0.3 mm
03:30 AM 35.7°F2.1°C 31.6°F-0.2°C 85% 1.2 mph NNW1.9 kmh NNW 3.5 mph5.6 kmh 29.86 in1011.2 mb - 0.00 in0.0 mm 0.01 in0.3 mm
03:20 AM 35.9°F2.2°C 32.1°F0.1°C 86% 1.2 mph NNW1.9 kmh NNW 2.3 mph3.7 kmh 29.85 in1010.8 mb - 0.00 in0.0 mm 0.01 in0.3 mm
03:10 AM 36.0°F2.2°C 32.2°F0.1°C 86% 2.3 mph N3.7 kmh N 3.5 mph5.6 kmh 29.85 in1010.8 mb - 0.00 in0.0 mm 0.01 in0.3 mm
03:00 AM 36.1°F2.3°C 32.3°F0.2°C 86% 3.5 mph NW5.6 kmh NW 3.5 mph5.6 kmh 29.85 in1010.8 mb - 0.00 in0.0 mm 0.01 in0.3 mm
02:50 AM 36.2°F2.3°C 32.7°F0.4°C 87% 3.5 mph NW5.6 kmh NW 3.5 mph5.6 kmh 29.84 in1010.5 mb - 0.00 in0.0 mm 0.01 in0.3 mm
02:40 AM 36.2°F2.3°C 33.0°F0.6°C 88% 2.3 mph NNW3.7 kmh NNW 3.5 mph5.6 kmh 29.84 in1010.5 mb - 0.00 in0.0 mm 0.01 in0.3 mm
02:30 AM 36.2°F2.3°C 33.8°F1.0°C 91% 2.3 mph N3.7 kmh N 6.9 mph11.1 kmh 29.84 in1010.5 mb - 0.00 in0.0 mm 0.01 in0.3 mm
02:20 AM 36.1°F2.3°C 33.7°F0.9°C 91% 1.2 mph N1.9 kmh N 2.3 mph3.7 kmh 29.84 in1010.5 mb - 0.00 in0.0 mm 0.01 in0.3 mm
02:10 AM 36.1°F2.3°C 34.0°F1.1°C 92% 1.2 mph NNW1.9 kmh NNW 3.5 mph5.6 kmh 29.83 in1010.2 mb - 0.00 in0.0 mm 0.01 in0.3 mm
02:00 AM 36.1°F2.3°C 34.3°F1.3°C 93% 1.2 mph N1.9 kmh N 2.3 mph3.7 kmh 29.83 in1010.2 mb - 0.00 in0.0 mm 0.01 in0.3 mm
01:50 AM 36.1°F2.3°C 34.3°F1.3°C 93% 1.2 mph NNW1.9 kmh NNW 2.3 mph3.7 kmh 29.83 in1010.2 mb - 0.00 in0.0 mm 0.01 in0.3 mm
01:40 AM 36.1°F2.3°C 34.3°F1.3°C 93% 1.2 mph NNW1.9 kmh NNW 3.5 mph5.6 kmh 29.82 in1009.8 mb - 0.00 in0.0 mm 0.01 in0.3 mm
01:30 AM 36.2°F2.3°C 34.6°F1.4°C 94% 2.3 mph NW3.7 kmh NW 3.5 mph5.6 kmh 29.82 in1009.8 mb - 0.00 in0.0 mm 0.01 in0.3 mm
01:20 AM 36.4°F2.4°C 34.8°F1.6°C 94% 2.3 mph N3.7 kmh N 3.5 mph5.6 kmh 29.82 in1009.8 mb - 0.00 in0.0 mm 0.01 in0.3 mm
01:10 AM 36.6°F2.6°C 35.1°F1.7°C 94% 1.2 mph NNE1.9 kmh NNE 4.6 mph7.4 kmh 29.81 in1009.5 mb - 0.00 in0.0 mm 0.01 in0.3 mm
01:00 AM 36.9°F2.7°C 35.3°F1.8°C 94% 1.2 mph N1.9 kmh N 2.3 mph3.7 kmh 29.82 in1009.8 mb - 0.00 in0.0 mm 0.01 in0.3 mm
12:50 AM 37.0°F2.8°C 35.2°F1.8°C 93% 1.2 mph SE1.9 kmh SE 2.3 mph3.7 kmh 29.82 in1009.8 mb - 0.01 in0.3 mm 0.01 in0.3 mm
12:40 AM 37.0°F2.8°C 35.2°F1.8°C 93% 1.2 mph NW1.9 kmh NW 2.3 mph3.7 kmh 29.81 in1009.5 mb - 0.00 in0.0 mm 0.00 in0.0 mm
12:30 AM 37.1°F2.8°C 35.3°F1.8°C 93% 1.2 mph N1.9 kmh N 2.3 mph3.7 kmh 29.80 in1009.1 mb - 0.00 in0.0 mm 0.00 in0.0 mm
12:20 AM 37.3°F2.9°C 35.7°F2.1°C 94% 1.2 mph NW1.9 kmh NW 3.5 mph5.6 kmh 29.80 in1009.1 mb - 0.00 in0.0 mm 0.00 in0.0 mm
12:10 AM 37.4°F3.0°C 36.1°F2.3°C 95% 2.3 mph E3.7 kmh E 5.8 mph9.3 kmh 29.80 in1009.1 mb - 0.00 in0.0 mm 0.00 in0.0 mm
12:00 AM 37.4°F3.0°C 36.1°F2.3°C 95% Calm Calm 1.2 mph1.9 kmh 29.80 in1009.1 mb - 0.00 in0.0 mm 0.00 in0.0 mm